Observation data for Levelland on 05/24/2019      Previous  Date  Next       Current Mesonet Observations  Soil Data  Daily Summary Page  Observations in Plain Language
KLD1 240500Z 34011KT 16/13 A2998 RMK A01 T01580130  RH  087%=      5-min Rain = 0
KLD1 240505Z 35010KT 16/13 A2998 RMK A01 T01560131  RH  089%=      5-min Rain = 0
KLD1 240510Z 00012KT 15/13 A2997 RMK A01 T01520131  RH  091%=      5-min Rain = 0.01
KLD1 240515Z 02012KT 15/13 A2997 RMK A01 T01480129  RH  092%=      5-min Rain = 0.01
KLD1 240520Z 01010KT 15/13 A2996 RMK A01 T01460131  RH  094%=      5-min Rain = 0
KLD1 240525Z 13005KT 15/13 A2997 RMK A01 T01470132  RH  095%=      5-min Rain = 0
KLD1 240530Z 05007KT 15/13 A2996 RMK A01 T01460130  RH  094%=      5-min Rain = 0
KLD1 240535Z 01008KT 15/13 A2996 RMK A01 T01490128  RH  091%=      5-min Rain = 0.01
KLD1 240540Z 02006KT 15/13 A2997 RMK A01 T01520126  RH  087%=      5-min Rain = 0
KLD1 240545Z 02004KT 15/13 A2998 RMK A01 T01530125  RH  087%=      5-min Rain = 0
KLD1 240550Z 02006KT 15/13 A2997 RMK A01 T01530127  RH  088%=      5-min Rain = 0
KLD1 240555Z 01004KT 15/13 A2997 RMK A01 T01530128  RH  088%=      5-min Rain = 0.01
KLD1 240600Z 32005G10KT 15/13 A2999 RMK A01 T01520129  RH  090%=      5-min Rain = 0
KLD1 240605Z 32010G16KT 15/13 A2997 RMK A01 T01520130  RH  091%=      5-min Rain = 0.02
KLD1 240610Z 28019G27KT 15/12 A2998 RMK A01 T01490124  RH  088%=      5-min Rain = 0.02
KLD1 240615Z 29014G20KT 14/11 A2998 RMK A01 T01400113  RH  087%=      5-min Rain = 0.08
KLD1 240620Z 29006G12KT 14/11 A2997 RMK A01 T01350113  RH  090%=      5-min Rain = 0.03
KLD1 240625Z 32004KT 13/12 A2997 RMK A01 T01330115  RH  092%=      5-min Rain = 0.03
KLD1 240630Z 07005KT 13/12 A2997 RMK A01 T01330117  RH  094%=      5-min Rain = 0.02
KLD1 240635Z 09007KT 13/12 A2996 RMK A01 T01340120  RH  094%=      5-min Rain = 0.01
KLD1 240640Z 07007KT 14/12 A2995 RMK A01 T01360121  RH  094%=      5-min Rain = 0
KLD1 240645Z 10008KT 14/12 A2995 RMK A01 T01380121  RH  093%=      5-min Rain = 0
KLD1 240650Z 10009KT 14/12 A2995 RMK A01 T01420124  RH  093%=      5-min Rain = 0
KLD1 240655Z 10009KT 14/13 A2995 RMK A01 T01440127  RH  093%=      5-min Rain = 0
KLD1 240700Z 10008KT 14/13 A2994 RMK A01 T01440125  RH  092%=      5-min Rain = 0
KLD1 240705Z 11006KT 15/13 A2994 RMK A01 T01450127  RH  092%=      5-min Rain = 0
KLD1 240710Z 11006KT 15/13 A2993 RMK A01 T01470127  RH  091%=      5-min Rain = 0
KLD1 240715Z 11007G13KT 15/13 A2993 RMK A01 T01490130  RH  092%=      5-min Rain = 0
KLD1 240720Z 11006G13KT 15/13 A2993 RMK A01 T01480129  RH  092%=      5-min Rain = 0
KLD1 240725Z 09005KT 15/13 A2993 RMK A01 T01470131  RH  093%=      5-min Rain = 0
KLD1 240730Z 10005KT 15/13 A2994 RMK A01 T01480131  RH  093%=      5-min Rain = 0
KLD1 240735Z 13002KT 15/13 A2995 RMK A01 T01480131  RH  093%=      5-min Rain = 0
KLD1 240740Z 12001KT 15/13 A2996 RMK A01 T01490131  RH  093%=      5-min Rain = 0
KLD1 240745Z 32004KT 15/13 A2996 RMK A01 T01500132  RH  093%=      5-min Rain = 0
KLD1 240750Z 33005KT 15/13 A2996 RMK A01 T01490132  RH  093%=      5-min Rain = 0
KLD1 240755Z 34008KT 15/13 A2995 RMK A01 T01490133  RH  093%=      5-min Rain = 0
KLD1 240800Z 10006KT 15/13 A2995 RMK A01 T01510134  RH  094%=      5-min Rain = 0
KLD1 240805Z 05005KT 15/13 A2995 RMK A01 T01510134  RH  093%=      5-min Rain = 0
KLD1 240810Z 07002KT 15/13 A2997 RMK A01 T01520133  RH  092%=      5-min Rain = 0
KLD1 240815Z 35002KT 15/13 A2997 RMK A01 T01530134  RH  092%=      5-min Rain = 0.01
KLD1 240820Z 32006KT 15/14 A2997 RMK A01 T01520135  RH  093%=      5-min Rain = 0.01
KLD1 240825Z 30009KT 15/14 A2998 RMK A01 T01510135  RH  094%=      5-min Rain = 0.1
KLD1 240830Z 31006KT 15/13 A2999 RMK A01 T01470132  RH  095%=      5-min Rain = 0.19
KLD1 240835Z 32007KT 14/13 A2997 RMK A01 T01440131  RH  096%=      5-min Rain = 0.08
KLD1 240840Z 33006KT 14/13 A2995 RMK A01 T01420131  RH  097%=      5-min Rain = 0.01
KLD1 240845Z 32006KT 14/13 A2994 RMK A01 T01420130  RH  097%=      5-min Rain = 0
KLD1 240850Z 33003KT 14/13 A2995 RMK A01 T01410130  RH  097%=      5-min Rain = 0
KLD1 240855Z 10004KT 14/13 A2995 RMK A01 T01420132  RH  097%=      5-min Rain = 0
KLD1 240900Z 10007KT 14/13 A2995 RMK A01 T01440132  RH  097%=      5-min Rain = 0
KLD1 240905Z 12006KT 15/13 A2995 RMK A01 T01460133  RH  096%=      5-min Rain = 0
KLD1 240910Z 21006KT 15/13 A2997 RMK A01 T01470134  RH  095%=      5-min Rain = 0
KLD1 240915Z 29004KT 15/13 A2996 RMK A01 T01480134  RH  096%=      5-min Rain = 0.02
KLD1 240920Z 26005KT 15/14 A2996 RMK A01 T01470135  RH  096%=      5-min Rain = 0
KLD1 240925Z 22005KT 15/14 A2997 RMK A01 T01470136  RH  097%=      5-min Rain = 0
KLD1 240930Z 07003KT 15/13 A2995 RMK A01 T01460133  RH  096%=      5-min Rain = 0.02
KLD1 240935Z 26001KT 14/13 A2996 RMK A01 T01440130  RH  095%=      5-min Rain = 0
KLD1 240940Z 11002KT 14/13 A2996 RMK A01 T01430131  RH  096%=      5-min Rain = 0
KLD1 240945Z 12003KT 15/13 A2995 RMK A01 T01450134  RH  097%=      5-min Rain = 0
KLD1 240950Z 12005KT 15/13 A2995 RMK A01 T01470134  RH  096%=      5-min Rain = 0
KLD1 240955Z 12007KT 15/13 A2996 RMK A01 T01490134  RH  094%=      5-min Rain = 0
KLD1 241000Z 11007KT 15/13 A2995 RMK A01 T01530132  RH  091%=      5-min Rain = 0
KLD1 241005Z 11008KT 15/13 A2995 RMK A01 T01540133  RH  091%=      5-min Rain = 0
KLD1 241010Z 12002KT 15/13 A2996 RMK A01 T01520132  RH  091%=      5-min Rain = 0
KLD1 241015Z 33001KT 15/13 A2996 RMK A01 T01510131  RH  091%=      5-min Rain = 0
KLD1 241020Z 07003KT 15/13 A2996 RMK A01 T01520129  RH  089%=      5-min Rain = 0
KLD1 241025Z 11005KT 16/12 A2995 RMK A01 T01550122  RH  084%=      5-min Rain = 0
KLD1 241030Z 10005KT 16/12 A2995 RMK A01 T01570122  RH  083%=      5-min Rain = 0
KLD1 241035Z 11004KT 16/12 A2995 RMK A01 T01550124  RH  085%=      5-min Rain = 0
KLD1 241040Z 12006KT 16/13 A2996 RMK A01 T01560125  RH  085%=      5-min Rain = 0
KLD1 241045Z 11008KT 16/13 A2996 RMK A01 T01580126  RH  085%=      5-min Rain = 0
KLD1 241050Z 12007KT 16/13 A2996 RMK A01 T01580127  RH  085%=      5-min Rain = 0
KLD1 241055Z 12006KT 16/13 A2996 RMK A01 T01570131  RH  088%=      5-min Rain = 0.02
KLD1 241100Z 12005KT 16/13 A2996 RMK A01 T01560133  RH  090%=      5-min Rain = 0
KLD1 241105Z 11004KT 16/13 A2996 RMK A01 T01560134  RH  091%=      5-min Rain = 0
KLD1 241110Z 11005KT 16/14 A2996 RMK A01 T01560136  RH  091%=      5-min Rain = 0
KLD1 241115Z 11004KT 16/14 A2996 RMK A01 T01570137  RH  092%=      5-min Rain = 0
KLD1 241120Z 11006KT 16/14 A2996 RMK A01 T01590138  RH  091%=      5-min Rain = 0
KLD1 241125Z 09004KT 16/14 A2996 RMK A01 T01600140  RH  092%=      5-min Rain = 0
KLD1 241130Z 09002KT 16/14 A2996 RMK A01 T01600142  RH  092%=      5-min Rain = 0
KLD1 241135Z 07003KT 16/14 A2996 RMK A01 T01600142  RH  093%=      5-min Rain = 0
KLD1 241140Z 07004KT 16/14 A2996 RMK A01 T01600142  RH  093%=      5-min Rain = 0
KLD1 241145Z 09003KT 16/14 A2997 RMK A01 T01610143  RH  093%=      5-min Rain = 0
KLD1 241150Z 02001KT 16/15 A2997 RMK A01 T01620145  RH  094%=      5-min Rain = 0
KLD1 241155Z 13001KT 16/15 A2998 RMK A01 T01620145  RH  094%=      5-min Rain = 0
KLD1 241200Z 06002KT 16/15 A2998 RMK A01 T01640147  RH  094%=      5-min Rain = 0
KLD1 241205Z 04003KT 17/15 A2998 RMK A01 T01650146  RH  093%=      5-min Rain = 0
KLD1 241210Z 03003KT 17/15 A2998 RMK A01 T01660147  RH  093%=      5-min Rain = 0
KLD1 241215Z 04002KT 17/15 A2999 RMK A01 T01660148  RH  093%=      5-min Rain = 0
KLD1 241220Z 06003KT 17/15 A2998 RMK A01 T01670149  RH  093%=      5-min Rain = 0
KLD1 241225Z 10004KT 17/15 A2998 RMK A01 T01680151  RH  094%=      5-min Rain = 0
KLD1 241230Z 10006KT 17/15 A2998 RMK A01 T01680151  RH  094%=      5-min Rain = 0
KLD1 241235Z 09006KT 17/15 A2998 RMK A01 T01690151  RH  093%=      5-min Rain = 0
KLD1 241240Z 07005KT 17/15 A2998 RMK A01 T01700152  RH  094%=      5-min Rain = 0
KLD1 241245Z 04003KT 17/15 A2998 RMK A01 T01710152  RH  093%=      5-min Rain = 0
KLD1 241250Z 02005KT 17/15 A2998 RMK A01 T01740149  RH  089%=      5-min Rain = 0
KLD1 241255Z 03005KT 18/15 A2998 RMK A01 T01770148  RH  087%=      5-min Rain = 0
KLD1 241300Z 05005KT 18/15 A2998 RMK A01 T01780149  RH  087%=      5-min Rain = 0
KLD1 241305Z 06004KT 18/15 A2999 RMK A01 T01780151  RH  088%=      5-min Rain = 0
KLD1 241310Z 06004KT 18/15 A2999 RMK A01 T01780151  RH  088%=      5-min Rain = 0
KLD1 241315Z 06004KT 18/15 A2999 RMK A01 T01780150  RH  088%=      5-min Rain = 0
KLD1 241320Z 07005KT 18/15 A2999 RMK A01 T01790150  RH  087%=      5-min Rain = 0
KLD1 241325Z 06004KT 18/15 A2999 RMK A01 T01780151  RH  088%=      5-min Rain = 0
KLD1 241330Z 05005KT 18/15 A2999 RMK A01 T01780150  RH  087%=      5-min Rain = 0
KLD1 241335Z 05006KT 18/15 A30 RMK A01 T01780150  RH  087%=      5-min Rain = 0
KLD1 241340Z 04006KT 18/15 A30 RMK A01 T01790151  RH  087%=      5-min Rain = 0
KLD1 241345Z 04005KT 18/15 A30 RMK A01 T01790151  RH  088%=      5-min Rain = 0
KLD1 241350Z 03004KT 18/15 A30 RMK A01 T01790150  RH  087%=      5-min Rain = 0
KLD1 241355Z 02006KT 18/15 A30 RMK A01 T01800151  RH  087%=      5-min Rain = 0
KLD1 241400Z 00005KT 18/15 A30 RMK A01 T01790154  RH  089%=      5-min Rain = 0
KLD1 241405Z 01006KT 18/15 A30 RMK A01 T01760153  RH  090%=      5-min Rain = 0
KLD1 241410Z 35005KT 17/15 A30 RMK A01 T01730151  RH  091%=      5-min Rain = 0
KLD1 241415Z 34005KT 17/15 A30 RMK A01 T01740152  RH  091%=      5-min Rain = 0
KLD1 241420Z 00006KT 17/15 A30 RMK A01 T01720149  RH  090%=      5-min Rain = 0
KLD1 241425Z 00006KT 17/15 A30 RMK A01 T01700146  RH  090%=      5-min Rain = 0
KLD1 241430Z 35006KT 17/15 A30 RMK A01 T01700147  RH  090%=      5-min Rain = 0
KLD1 241435Z 34006KT 17/15 A30 RMK A01 T01710147  RH  090%=      5-min Rain = 0
KLD1 241440Z 34005KT 17/15 A30 RMK A01 T01720148  RH  089%=      5-min Rain = 0
KLD1 241445Z 36004KT 17/15 A30 RMK A01 T01730147  RH  089%=      5-min Rain = 0
KLD1 241450Z 35004KT 17/15 A30 RMK A01 T01740148  RH  089%=      5-min Rain = 0
KLD1 241455Z 00004KT 18/15 A30 RMK A01 T01760150  RH  089%=      5-min Rain = 0
KLD1 241500Z 00005KT 18/15 A30 RMK A01 T01770150  RH  088%=      5-min Rain = 0
KLD1 241505Z 02004KT 18/15 A30 RMK A01 T01770149  RH  088%=      5-min Rain = 0
KLD1 241510Z 02003KT 18/15 A3001 RMK A01 T01780150  RH  088%=      5-min Rain = 0
KLD1 241515Z 01005KT 18/15 A3001 RMK A01 T01810152  RH  087%=      5-min Rain = 0
KLD1 241520Z 02005KT 18/15 A30 RMK A01 T01840154  RH  086%=      5-min Rain = 0
KLD1 241525Z 03004KT 18/15 A30 RMK A01 T01840152  RH  085%=      5-min Rain = 0
KLD1 241530Z 04004KT 19/15 A30 RMK A01 T01850154  RH  086%=      5-min Rain = 0
KLD1 241535Z 06005KT 19/16 A30 RMK A01 T01850155  RH  086%=      5-min Rain = 0
KLD1 241540Z 06004KT 19/16 A3001 RMK A01 T01850155  RH  086%=      5-min Rain = 0
KLD1 241545Z 06003KT 19/16 A3001 RMK A01 T01860156  RH  086%=      5-min Rain = 0
KLD1 241550Z 05003KT 19/16 A3001 RMK A01 T01890159  RH  087%=      5-min Rain = 0
KLD1 241555Z 06003KT 19/16 A3001 RMK A01 T01920160  RH  086%=      5-min Rain = 0
KLD1 241600Z 07003KT 19/16 A3001 RMK A01 T01940162  RH  086%=      5-min Rain = 0
KLD1 241605Z 07002KT 20/16 A3001 RMK A01 T01970164  RH  085%=      5-min Rain = 0
KLD1 241610Z 05002KT 20/17 A3001 RMK A01 T02000165  RH  084%=      5-min Rain = 0
KLD1 241615Z 08001KT 20/17 A3001 RMK A01 T02030168  RH  084%=      5-min Rain = 0
KLD1 241620Z 07001KT 21/17 A3001 RMK A01 T02100170  RH  082%=      5-min Rain = 0.01
KLD1 241625Z 11002KT 21/17 A3001 RMK A01 T02110172  RH  082%=      5-min Rain = 0
KLD1 241630Z 15002KT 21/17 A3001 RMK A01 T02090172  RH  084%=      5-min Rain = 0
KLD1 241635Z 20002KT 21/17 A3001 RMK A01 T02120173  RH  083%=      5-min Rain = 0
KLD1 241640Z 21001KT 22/18 A3001 RMK A01 T02160176  RH  082%=      5-min Rain = 0
KLD1 241645Z 14001KT 22/18 A3001 RMK A01 T02190176  RH  081%=      5-min Rain = 0
KLD1 241650Z 15002KT 22/18 A30 RMK A01 T02220178  RH  081%=      5-min Rain = 0
KLD1 241655Z 23002KT 23/18 A30 RMK A01 T02250179  RH  079%=      5-min Rain = 0
KLD1 241700Z 17001KT 23/18 A30 RMK A01 T02250178  RH  079%=      5-min Rain = 0
KLD1 241705Z 24003KT 23/18 A30 RMK A01 T02290183  RH  079%=      5-min Rain = 0
KLD1 241710Z 21004KT 23/18 A30 RMK A01 T02300182  RH  078%=      5-min Rain = 0
KLD1 241715Z 23006KT 23/18 A2999 RMK A01 T02320183  RH  078%=      5-min Rain = 0
KLD1 241720Z 24004KT 23/18 A2999 RMK A01 T02320183  RH  078%=      5-min Rain = 0
KLD1 241725Z 21005G10KT 24/19 A2999 RMK A01 T02380188  RH  078%=      5-min Rain = 0
KLD1 241730Z 22008KT 25/19 A2999 RMK A01 T02450189  RH  075%=      5-min Rain = 0
KLD1 241735Z 22008KT 24/19 A2999 RMK A01 T02430187  RH  075%=      5-min Rain = 0
KLD1 241740Z 20008KT 25/19 A2999 RMK A01 T02470189  RH  074%=      5-min Rain = 0
KLD1 241745Z 21007G12KT 25/19 A2999 RMK A01 T02450189  RH  075%=      5-min Rain = 0
KLD1 241750Z 23008KT 25/19 A2998 RMK A01 T02480189  RH  073%=      5-min Rain = 0
KLD1 241755Z 24007KT 25/19 A2997 RMK A01 T02480187  RH  073%=      5-min Rain = 0
KLD1 241800Z 25007KT 25/19 A2997 RMK A01 T02480186  RH  073%=      5-min Rain = 0
KLD1 241805Z 26008KT 25/19 A2996 RMK A01 T02540186  RH  069%=      5-min Rain = 0
KLD1 241810Z 26008G13KT 25/18 A2996 RMK A01 T02540184  RH  069%=      5-min Rain = 0
KLD1 241815Z 27008KT 26/19 A2996 RMK A01 T02570185  RH  068%=      5-min Rain = 0
KLD1 241820Z 27008KT 26/18 A2996 RMK A01 T02600181  RH  065%=      5-min Rain = 0
KLD1 241825Z 24005KT 26/18 A2997 RMK A01 T02560177  RH  065%=      5-min Rain = 0
KLD1 241830Z 27004G9KT 26/18 A2997 RMK A01 T02600183  RH  066%=      5-min Rain = 0
KLD1 241835Z 27007KT 27/18 A2995 RMK A01 T02660180  RH  062%=      5-min Rain = 0
KLD1 241840Z 27005KT 26/18 A2995 RMK A01 T02620176  RH  062%=      5-min Rain = 0
KLD1 241845Z 31005G11KT 26/18 A2995 RMK A01 T02630178  RH  063%=      5-min Rain = 0
KLD1 241850Z 28007KT 26/18 A2995 RMK A01 T02580175  RH  063%=      5-min Rain = 0
KLD1 241855Z 25004KT 26/18 A2995 RMK A01 T02610176  RH  063%=      5-min Rain = 0
KLD1 241900Z 29004KT 26/18 A2995 RMK A01 T02630177  RH  062%=      5-min Rain = 0
KLD1 241905Z 30004KT 26/18 A2995 RMK A01 T02600177  RH  063%=      5-min Rain = 0
KLD1 241910Z 23004KT 27/18 A2995 RMK A01 T02670179  RH  062%=      5-min Rain = 0
KLD1 241915Z 27003KT 26/17 A2995 RMK A01 T02620172  RH  061%=      5-min Rain = 0
KLD1 241920Z 27003KT 27/18 A2995 RMK A01 T02670177  RH  061%=      5-min Rain = 0
KLD1 241925Z 30003KT 27/17 A2995 RMK A01 T02660171  RH  059%=      5-min Rain = 0
KLD1 241930Z 30005KT 26/17 A2994 RMK A01 T02630172  RH  060%=      5-min Rain = 0
KLD1 241935Z 27003KT 27/17 A2994 RMK A01 T02660172  RH  059%=      5-min Rain = 0
KLD1 241940Z 27005KT 27/17 A2993 RMK A01 T02700173  RH  058%=      5-min Rain = 0
KLD1 241945Z 28007KT 27/17 A2993 RMK A01 T02710173  RH  058%=      5-min Rain = 0
KLD1 241950Z 28006KT 28/17 A2992 RMK A01 T02760174  RH  056%=      5-min Rain = 0
KLD1 241955Z 25007KT 28/17 A2992 RMK A01 T02750170  RH  056%=      5-min Rain = 0
KLD1 242000Z 24007G13KT 28/17 A2992 RMK A01 T02810165  RH  052%=      5-min Rain = 0
KLD1 242005Z 28008G14KT 28/17 A2992 RMK A01 T02800165  RH  052%=      5-min Rain = 0
KLD1 242010Z 29008G13KT 28/16 A2992 RMK A01 T02810164  RH  051%=      5-min Rain = 0
KLD1 242015Z 28008G14KT 28/16 A2992 RMK A01 T02810160  RH  050%=      5-min Rain = 0
KLD1 242020Z 29009G14KT 28/16 A2991 RMK A01 T02840160  RH  049%=      5-min Rain = 0
KLD1 242025Z 28007KT 29/16 A2991 RMK A01 T02850158  RH  048%=      5-min Rain = 0
KLD1 242030Z 28010KT 29/15 A2991 RMK A01 T02890147  RH  044%=      5-min Rain = 0
KLD1 242035Z 27009G14KT 29/14 A2991 RMK A01 T02870139  RH  042%=      5-min Rain = 0
KLD1 242040Z 28010KT 29/13 A2991 RMK A01 T02900134  RH  040%=      5-min Rain = 0
KLD1 242045Z 28010KT 29/13 A2991 RMK A01 T02900132  RH  039%=      5-min Rain = 0
KLD1 242050Z 28009KT 29/13 A299 RMK A01 T02920127  RH  038%=      5-min Rain = 0
KLD1 242055Z 26007KT 30/13 A299 RMK A01 T02950134  RH  039%=      5-min Rain = 0
KLD1 242100Z 25009G15KT 30/13 A299 RMK A01 T02960129  RH  037%=      5-min Rain = 0
KLD1 242105Z 26009G15KT 29/13 A299 RMK A01 T02940131  RH  038%=      5-min Rain = 0
KLD1 242110Z 24011G16KT 30/14 A2989 RMK A01 T02960135  RH  039%=      5-min Rain = 0
KLD1 242115Z 27009G15KT 30/13 A2989 RMK A01 T02970131  RH  038%=      5-min Rain = 0
KLD1 242120Z 26008KT 30/13 A2989 RMK A01 T02970132  RH  038%=      5-min Rain = 0
KLD1 242125Z 25009KT 30/13 A2989 RMK A01 T02980126  RH  036%=      5-min Rain = 0
KLD1 242130Z 25009KT 30/13 A2989 RMK A01 T02970126  RH  036%=      5-min Rain = 0
KLD1 242135Z 23011KT 30/13 A2988 RMK A01 T02980129  RH  037%=      5-min Rain = 0
KLD1 242140Z 24009KT 30/13 A2988 RMK A01 T02980127  RH  036%=      5-min Rain = 0
KLD1 242145Z 25009KT 30/13 A2987 RMK A01 T02990126  RH  036%=      5-min Rain = 0
KLD1 242150Z 25011KT 30/13 A2987 RMK A01 T02990128  RH  036%=      5-min Rain = 0
KLD1 242155Z 25011G16KT 30/13 A2987 RMK A01 T03000129  RH  036%=      5-min Rain = 0
KLD1 242200Z 25009KT 30/13 A2987 RMK A01 T03000128  RH  036%=      5-min Rain = 0
KLD1 242205Z 25011KT 30/14 A2987 RMK A01 T03020135  RH  037%=      5-min Rain = 0
KLD1 242210Z 24013G19KT 30/14 A2986 RMK A01 T03010139  RH  039%=      5-min Rain = 0
KLD1 242215Z 21012KT 30/14 A2987 RMK A01 T03010143  RH  040%=      5-min Rain = 0
KLD1 242220Z 11010KT 27/18 A2988 RMK A01 T02660179  RH  063%=      5-min Rain = 0
KLD1 242225Z 10017KT 25/18 A2987 RMK A01 T02480183  RH  071%=      5-min Rain = 0
KLD1 242230Z 09015KT 24/18 A2987 RMK A01 T02390178  RH  072%=      5-min Rain = 0
KLD1 242235Z 08014KT 24/17 A2987 RMK A01 T02390173  RH  070%=      5-min Rain = 0
KLD1 242240Z 08013KT 24/17 A2986 RMK A01 T02420174  RH  069%=      5-min Rain = 0
KLD1 242245Z 08011G16KT 24/17 A2986 RMK A01 T02430173  RH  068%=      5-min Rain = 0
KLD1 242250Z 07012KT 24/17 A2986 RMK A01 T02430171  RH  067%=      5-min Rain = 0
KLD1 242255Z 08012KT 25/17 A2986 RMK A01 T02460171  RH  066%=      5-min Rain = 0
KLD1 242300Z 08012KT 25/17 A2987 RMK A01 T02490173  RH  066%=      5-min Rain = 0
KLD1 242305Z 07013KT 25/17 A2986 RMK A01 T02500174  RH  066%=      5-min Rain = 0
KLD1 242310Z 07013KT 25/17 A2986 RMK A01 T02520173  RH  065%=      5-min Rain = 0
KLD1 242315Z 08012KT 25/17 A2985 RMK A01 T02540174  RH  064%=      5-min Rain = 0
KLD1 242320Z 07012KT 26/17 A2985 RMK A01 T02570174  RH  063%=      5-min Rain = 0
KLD1 242325Z 08013KT 26/17 A2986 RMK A01 T02560170  RH  062%=      5-min Rain = 0
KLD1 242330Z 07011KT 26/17 A2986 RMK A01 T02580171  RH  062%=      5-min Rain = 0
KLD1 242335Z 07012KT 26/17 A2985 RMK A01 T02580170  RH  061%=      5-min Rain = 0
KLD1 242340Z 08013KT 25/17 A2986 RMK A01 T02520171  RH  064%=      5-min Rain = 0
KLD1 242345Z 08014KT 25/17 A2986 RMK A01 T02510166  RH  062%=      5-min Rain = 0
KLD1 242350Z 07012KT 25/17 A2986 RMK A01 T02500165  RH  062%=      5-min Rain = 0
KLD1 242355Z 07011KT 25/16 A2986 RMK A01 T02490164  RH  062%=      5-min Rain = 0
KLD1 250000Z 08011KT 25/17 A2986 RMK A01 T02470169  RH  065%=      5-min Rain = 0
KLD1 250005Z 08010KT 24/17 A2986 RMK A01 T02440167  RH  065%=      5-min Rain = 0
KLD1 250010Z 07009KT 25/17 A2985 RMK A01 T02450166  RH  064%=      5-min Rain = 0
KLD1 250015Z 08007KT 25/17 A2985 RMK A01 T02450169  RH  066%=      5-min Rain = 0
KLD1 250020Z 10007KT 24/17 A2986 RMK A01 T02420171  RH  068%=      5-min Rain = 0
KLD1 250025Z 09008KT 24/17 A2986 RMK A01 T02390172  RH  069%=      5-min Rain = 0
KLD1 250030Z 09009KT 24/17 A2985 RMK A01 T02390174  RH  071%=      5-min Rain = 0
KLD1 250035Z 11011KT 24/18 A2985 RMK A01 T02380178  RH  073%=      5-min Rain = 0
KLD1 250040Z 10013G19KT 23/18 A2984 RMK A01 T02320177  RH  075%=      5-min Rain = 0
KLD1 250045Z 10014KT 22/17 A2985 RMK A01 T02220170  RH  077%=      5-min Rain = 0
KLD1 250050Z 10015G22KT 23/17 A2985 RMK A01 T02280172  RH  074%=      5-min Rain = 0
KLD1 250055Z 10015KT 23/17 A2986 RMK A01 T02280171  RH  074%=      5-min Rain = 0
KLD1 250100Z 09016KT 23/17 A2986 RMK A01 T02250172  RH  076%=      5-min Rain = 0
KLD1 250105Z 07015KT 22/17 A2986 RMK A01 T02210172  RH  077%=      5-min Rain = 0
KLD1 250110Z 11013G19KT 22/18 A2986 RMK A01 T02220176  RH  079%=      5-min Rain = 0
KLD1 250115Z 13017G25KT 23/18 A2986 RMK A01 T02320181  RH  077%=      5-min Rain = 0
KLD1 250120Z 14020G26KT 24/18 A2986 RMK A01 T02440184  RH  073%=      5-min Rain = 0
KLD1 250125Z 14018KT 24/19 A2987 RMK A01 T02430185  RH  074%=      5-min Rain = 0
KLD1 250130Z 14017G22KT 24/19 A2987 RMK A01 T02420185  RH  074%=      5-min Rain = 0
KLD1 250135Z 14016G22KT 24/18 A2988 RMK A01 T02410184  RH  075%=      5-min Rain = 0
KLD1 250140Z 14018G24KT 24/18 A2989 RMK A01 T02390183  RH  075%=      5-min Rain = 0
KLD1 250145Z 14018G23KT 24/18 A299 RMK A01 T02390180  RH  074%=      5-min Rain = 0
KLD1 250150Z 13013G19KT 24/18 A299 RMK A01 T02370181  RH  075%=      5-min Rain = 0
KLD1 250155Z 13012G18KT 24/18 A2991 RMK A01 T02360182  RH  076%=      5-min Rain = 0
KLD1 250200Z 13014G23KT 24/18 A2992 RMK A01 T02350180  RH  075%=      5-min Rain = 0
KLD1 250205Z 11011KT 23/18 A2992 RMK A01 T02320182  RH  077%=      5-min Rain = 0
KLD1 250210Z 10012KT 23/18 A2993 RMK A01 T02300179  RH  077%=      5-min Rain = 0
KLD1 250215Z 09012KT 22/17 A2993 RMK A01 T02160173  RH  081%=      5-min Rain = 0
KLD1 250220Z 10013G18KT 21/17 A2993 RMK A01 T02140174  RH  082%=      5-min Rain = 0
KLD1 250225Z 10013KT 22/18 A2993 RMK A01 T02170175  RH  081%=      5-min Rain = 0
KLD1 250230Z 10012KT 22/18 A2993 RMK A01 T02210175  RH  079%=      5-min Rain = 0
KLD1 250235Z 11013G18KT 22/17 A2993 RMK A01 T02210174  RH  079%=      5-min Rain = 0
KLD1 250240Z 12013KT 22/17 A2993 RMK A01 T02200174  RH  079%=      5-min Rain = 0
KLD1 250245Z 12012KT 22/18 A2993 RMK A01 T02200175  RH  080%=      5-min Rain = 0
KLD1 250250Z 13011KT 22/18 A2993 RMK A01 T02180175  RH  081%=      5-min Rain = 0
KLD1 250255Z 13011KT 22/18 A2993 RMK A01 T02160175  RH  082%=      5-min Rain = 0
KLD1 250300Z 13009KT 21/18 A2994 RMK A01 T02140175  RH  083%=      5-min Rain = 0
KLD1 250305Z 12009KT 21/18 A2994 RMK A01 T02140176  RH  083%=      5-min Rain = 0
KLD1 250310Z 12008KT 21/18 A2994 RMK A01 T02130176  RH  084%=      5-min Rain = 0
KLD1 250315Z 11008KT 21/18 A2995 RMK A01 T02110176  RH  085%=      5-min Rain = 0
KLD1 250320Z 10009KT 21/18 A2995 RMK A01 T02070175  RH  086%=      5-min Rain = 0
KLD1 250325Z 10009KT 20/17 A2996 RMK A01 T02040174  RH  087%=      5-min Rain = 0
KLD1 250330Z 09009KT 20/17 A2997 RMK A01 T02000173  RH  088%=      5-min Rain = 0
KLD1 250335Z 09009KT 20/17 A2997 RMK A01 T01950169  RH  089%=      5-min Rain = 0
KLD1 250340Z 09010KT 19/17 A2997 RMK A01 T01940169  RH  090%=      5-min Rain = 0
KLD1 250345Z 09011KT 19/17 A2997 RMK A01 T01940168  RH  089%=      5-min Rain = 0
KLD1 250350Z 10011KT 20/17 A2997 RMK A01 T01950168  RH  089%=      5-min Rain = 0
KLD1 250355Z 10011KT 20/17 A2998 RMK A01 T01950168  RH  088%=      5-min Rain = 0
KLD1 250400Z 10011KT 20/17 A2998 RMK A01 T01960167  RH  088%=      5-min Rain = 0
KLD1 250405Z 10010KT 20/17 A2999 RMK A01 T01960167  RH  087%=      5-min Rain = 0
KLD1 250410Z 09010KT 20/17 A2999 RMK A01 T01950167  RH  088%=      5-min Rain = 0
KLD1 250415Z 09009KT 19/17 A2999 RMK A01 T01930167  RH  089%=      5-min Rain = 0
KLD1 250420Z 09010KT 19/17 A2999 RMK A01 T01900166  RH  090%=      5-min Rain = 0
KLD1 250425Z 09010KT 19/16 A2999 RMK A01 T01870164  RH  090%=      5-min Rain = 0
KLD1 250430Z 10009KT 19/16 A2999 RMK A01 T01870162  RH  090%=      5-min Rain = 0
KLD1 250435Z 10010KT 19/16 A2999 RMK A01 T01870163  RH  090%=      5-min Rain = 0
KLD1 250440Z 11010KT 19/16 A2999 RMK A01 T01880164  RH  090%=      5-min Rain = 0
KLD1 250445Z 10009KT 19/17 A2999 RMK A01 T01880165  RH  090%=      5-min Rain = 0
KLD1 250450Z 09008KT 19/17 A2999 RMK A01 T01870165  RH  091%=      5-min Rain = 0
KLD1 250455Z 09009KT 19/17 A2999 RMK A01 T01880165  RH  091%=      5-min Rain = 0

Page generated in 0.0091 seconds.